Time;durP1;ratioP1;P1;durP2;ratioP2;P2;SDS_P1;SDS_P2;PMS_P1;PMS_P2;Temp;Humidity;BMP_temperature;BMP_pressure;BME280_temperature;BME280_humidity;BME280_pressure;Samples;Min_cycle;Max_cycle;Signal;HPM_P1;HPM_P2
2023/05/20 00:01:22;;;;;;;16.48;5.18;;;10.80;99.90;;;;;;5125464;27;20046;-79
2023/05/20 00:03:47;;;;;;;13.77;5.28;;;10.70;99.90;;;;;;5128078;27;20043;-79
2023/05/20 00:06:13;;;;;;;14.52;4.68;;;10.70;99.90;;;;;;5127579;27;20438;-79
2023/05/20 00:08:39;;;;;;;15.18;5.53;;;10.60;99.90;;;;;;5126786;27;20150;-78
2023/05/20 00:11:05;;;;;;;19.23;5.10;;;10.50;99.90;;;;;;5129609;27;20042;-79
2023/05/20 00:13:30;;;;;;;18.30;5.53;;;10.50;99.90;;;;;;5127594;27;20191;-79
2023/05/20 00:15:56;;;;;;;14.50;6.13;;;10.40;99.90;;;;;;5121548;27;20556;-78
2023/05/20 00:18:22;;;;;;;13.70;5.10;;;10.40;99.90;;;;;;5110603;27;20050;-79
2023/05/20 00:20:47;;;;;;;14.10;4.90;;;10.30;99.90;;;;;;5127381;27;20043;-78
2023/05/20 00:23:13;;;;;;;16.52;5.35;;;10.20;99.90;;;;;;5127158;27;20130;-79
2023/05/20 00:25:39;;;;;;;15.60;5.03;;;10.20;99.90;;;;;;5106647;28;20501;-79
2023/05/20 00:28:05;;;;;;;15.60;5.57;;;10.20;99.90;;;;;;5121976;27;20051;-79
2023/05/20 00:30:31;;;;;;;13.02;4.93;;;10.10;99.90;;;;;;5118615;27;20118;-79
2023/05/20 00:32:57;;;;;;;17.00;4.95;;;10.10;99.90;;;;;;5126325;27;20489;-79
2023/05/20 00:35:22;;;;;;;16.88;5.13;;;10.10;99.90;;;;;;5128347;27;20455;-78
2023/05/20 00:37:48;;;;;;;15.88;5.22;;;10.00;99.90;;;;;;5128837;27;20050;-79
2023/05/20 00:40:14;;;;;;;13.57;4.88;;;10.10;99.90;;;;;;5109999;27;20462;-78
2023/05/20 00:42:40;;;;;;;16.33;5.22;;;10.10;99.90;;;;;;5123948;27;20051;-79
2023/05/20 00:45:07;;;;;;;14.68;5.13;;;10.10;99.90;;;;;;5128413;27;20157;-79
2023/05/20 00:47:35;;;;;;;15.10;4.97;;;10.20;99.90;;;;;;5123358;27;20052;-79
2023/05/20 00:50:02;;;;;;;14.18;4.53;;;10.20;99.90;;;;;;5126598;27;20439;-79
2023/05/20 00:52:31;;;;;;;20.73;5.55;;;10.20;99.90;;;;;;5128408;27;20088;-79
2023/05/20 00:54:58;;;;;;;13.73;4.63;;;10.20;99.90;;;;;;5123261;27;20058;-78
2023/05/20 00:57:24;;;;;;;17.38;4.70;;;10.20;99.90;;;;;;5126335;27;20047;-79
2023/05/20 00:59:50;;;;;;;11.38;4.75;;;10.20;99.90;;;;;;5126541;27;20067;-78
2023/05/20 01:02:15;;;;;;;12.65;4.68;;;10.30;99.90;;;;;;5126569;27;20615;-78
2023/05/20 01:04:45;;;;;;;13.75;4.90;;;10.20;99.90;;;;;;5127596;27;20049;-78
2023/05/20 01:07:13;;;;;;;17.17;4.63;;;10.30;99.90;;;;;;5109475;27;20082;-78
2023/05/20 01:09:40;;;;;;;15.65;5.13;;;10.30;99.90;;;;;;5126769;27;20059;-78
2023/05/20 01:12:11;;;;;;;12.63;5.13;;;10.20;99.90;;;;;;5127094;27;20556;-79
2023/05/20 01:14:47;;;;;;;15.43;5.15;;;10.20;99.90;;;;;;5125860;27;20043;-79
2023/05/20 01:17:16;;;;;;;12.95;4.80;;;10.20;99.90;;;;;;5122668;27;20052;-79
2023/05/20 01:19:44;;;;;;;15.52;4.60;;;10.20;99.90;;;;;;5124099;27;20409;-79
2023/05/20 01:22:11;;;;;;;13.82;4.28;;;10.20;99.90;;;;;;5117811;27;20050;-79
2023/05/20 01:24:43;;;;;;;10.48;4.32;;;10.20;99.90;;;;;;5124822;27;20072;-79
2023/05/20 01:27:12;;;;;;;14.20;4.95;;;10.20;99.90;;;;;;5126583;27;20092;-78
2023/05/20 01:29:38;;;;;;;14.40;5.25;;;10.10;99.90;;;;;;5108456;27;20040;-79
2023/05/20 01:32:09;;;;;;;9.32;4.30;;;10.10;99.90;;;;;;5097352;28;20146;-78
2023/05/20 01:34:37;;;;;;;10.40;4.40;;;10.10;99.90;;;;;;5125845;27;20082;-78
2023/05/20 01:37:04;;;;;;;15.07;5.00;;;10.10;99.90;;;;;;5128429;27;20043;-79
2023/05/20 01:39:35;;;;;;;15.13;5.00;;;10.10;99.90;;;;;;5108152;27;20083;-78
2023/05/20 01:42:02;;;;;;;14.15;4.68;;;10.10;99.90;;;;;;5122526;27;20490;-78
2023/05/20 01:44:28;;;;;;;16.98;5.13;;;10.10;99.90;;;;;;5124686;27;20477;-78
2023/05/20 01:46:54;;;;;;;14.45;4.82;;;10.10;99.90;;;;;;5126826;27;20482;-78
2023/05/20 01:49:20;;;;;;;12.60;4.75;;;10.10;99.90;;;;;;5125782;28;20050;-79
2023/05/20 01:51:46;;;;;;;15.98;5.13;;;10.00;99.90;;;;;;5126032;28;20043;-78
2023/05/20 01:54:11;;;;;;;10.02;4.45;;;10.00;99.90;;;;;;5125662;28;20090;-78
2023/05/20 01:56:37;;;;;;;11.57;5.30;;;10.00;99.90;;;;;;5123050;28;20047;-79
2023/05/20 01:59:03;;;;;;;15.93;5.28;;;10.00;99.90;;;;;;5126670;28;20383;-78
2023/05/20 02:01:29;;;;;;;11.48;4.28;;;10.00;99.90;;;;;;5123911;28;20051;-78
2023/05/20 02:03:54;;;;;;;11.25;4.72;;;10.00;99.90;;;;;;5126389;28;20047;-79
2023/05/20 02:06:20;;;;;;;13.05;4.80;;;10.00;99.90;;;;;;5125744;28;20310;-79
2023/05/20 02:08:46;;;;;;;12.38;4.25;;;9.90;99.90;;;;;;5126115;28;20062;-78
2023/05/20 02:11:11;;;;;;;15.98;5.38;;;9.90;99.90;;;;;;5101348;28;20541;-79
2023/05/20 02:13:38;;;;;;;11.45;5.00;;;9.90;99.90;;;;;;5110456;28;20111;-79
2023/05/20 02:16:04;;;;;;;13.45;4.93;;;9.90;99.90;;;;;;5125608;28;20071;-79
2023/05/20 02:18:31;;;;;;;9.77;4.38;;;9.90;99.90;;;;;;5125595;28;20057;-79
2023/05/20 02:21:02;;;;;;;9.45;4.45;;;9.90;99.90;;;;;;5124830;28;20494;-79
2023/05/20 02:23:29;;;;;;;16.02;4.80;;;9.80;99.90;;;;;;5125531;28;20078;-79
2023/05/20 02:25:55;;;;;;;12.90;5.07;;;9.80;99.90;;;;;;5103708;28;20474;-79
2023/05/20 02:28:20;;;;;;;12.18;4.60;;;9.80;99.90;;;;;;5121671;28;20048;-79
2023/05/20 02:30:46;;;;;;;11.27;4.43;;;9.80;99.90;;;;;;5101632;28;20043;-79
2023/05/20 02:33:12;;;;;;;13.75;4.70;;;9.80;99.90;;;;;;5108579;28;20043;-79
2023/05/20 02:35:38;;;;;;;11.73;4.07;;;9.80;99.90;;;;;;5124880;28;20050;-79
2023/05/20 02:38:04;;;;;;;10.10;4.53;;;9.80;99.90;;;;;;5127707;28;20444;-79
2023/05/20 02:40:30;;;;;;;8.75;4.60;;;9.70;99.90;;;;;;5126735;28;20099;-79
2023/05/20 02:42:56;;;;;;;9.25;4.80;;;9.80;99.90;;;;;;5124609;28;20043;-79
2023/05/20 02:45:22;;;;;;;11.65;4.95;;;9.70;99.90;;;;;;5123758;28;20052;-78
2023/05/20 02:47:47;;;;;;;13.95;4.63;;;9.70;99.90;;;;;;5125624;28;20039;-79
2023/05/20 02:50:13;;;;;;;11.23;3.80;;;9.80;99.90;;;;;;5125890;28;20111;-79
2023/05/20 02:52:41;;;;;;;14.23;4.30;;;9.80;99.90;;;;;;5127296;28;20046;-79
2023/05/20 02:55:08;;;;;;;9.18;4.40;;;9.80;99.90;;;;;;5125878;27;20039;-79
2023/05/20 02:57:37;;;;;;;8.73;4.22;;;9.80;99.90;;;;;;5128289;27;20062;-79
2023/05/20 03:00:04;;;;;;;10.52;4.60;;;9.90;99.90;;;;;;5130139;27;20369;-79
2023/05/20 03:02:30;;;;;;;11.32;4.40;;;9.90;99.90;;;;;;5130376;27;20203;-79
2023/05/20 03:04:56;;;;;;;9.90;4.20;;;9.90;99.90;;;;;;5128518;27;20542;-79
2023/05/20 03:07:21;;;;;;;8.95;4.55;;;9.90;99.90;;;;;;5124986;27;20043;-79
2023/05/20 03:09:47;;;;;;;12.70;4.03;;;9.80;99.90;;;;;;5125348;27;20082;-79
2023/05/20 03:12:13;;;;;;;10.43;4.20;;;9.80;99.90;;;;;;5124837;27;20051;-79
2023/05/20 03:14:39;;;;;;;8.85;4.65;;;9.80;99.90;;;;;;5123855;27;20406;-79
2023/05/20 03:17:04;;;;;;;12.32;4.22;;;9.70;99.90;;;;;;5129583;27;20372;-79
2023/05/20 03:19:30;;;;;;;9.10;3.95;;;9.70;99.90;;;;;;5127725;27;20477;-79
2023/05/20 03:21:56;;;;;;;10.27;3.90;;;9.60;99.90;;;;;;5129143;27;20111;-79
2023/05/20 03:24:22;;;;;;;11.82;4.35;;;9.60;99.90;;;;;;5128676;27;20517;-79
2023/05/20 03:26:48;;;;;;;8.27;3.90;;;9.60;99.90;;;;;;5130495;27;20054;-79
2023/05/20 03:29:15;;;;;;;8.48;3.47;;;9.60;99.90;;;;;;5111006;27;20111;-79
2023/05/20 03:31:40;;;;;;;8.77;3.88;;;9.50;99.90;;;;;;5127441;27;20100;-79
2023/05/20 03:34:07;;;;;;;12.40;4.22;;;9.50;99.90;;;;;;5110792;27;20447;-79
2023/05/20 03:36:32;;;;;;;7.15;3.35;;;9.50;99.90;;;;;;5127745;27;20043;-79
2023/05/20 03:38:58;;;;;;;9.48;4.07;;;9.50;99.90;;;;;;5129525;27;20073;-79
2023/05/20 03:41:24;;;;;;;9.98;3.50;;;9.50;99.90;;;;;;5129825;27;20043;-78
2023/05/20 03:43:49;;;;;;;10.40;3.47;;;9.50;99.90;;;;;;5111170;27;20043;-78
2023/05/20 03:46:15;;;;;;;8.88;3.72;;;9.50;99.90;;;;;;5128443;27;20728;-78
2023/05/20 03:48:41;;;;;;;11.10;3.85;;;9.60;99.90;;;;;;5127764;27;20123;-79
2023/05/20 03:51:06;;;;;;;8.57;3.58;;;9.60;99.90;;;;;;5128601;27;20043;-78
2023/05/20 03:53:32;;;;;;;7.63;3.28;;;9.60;99.90;;;;;;5127357;27;20077;-78
2023/05/20 03:55:58;;;;;;;9.10;3.25;;;9.70;99.90;;;;;;5123999;27;20070;-78
2023/05/20 03:58:24;;;;;;;8.95;3.30;;;9.70;99.90;;;;;;5129232;27;20062;-78
2023/05/20 04:00:49;;;;;;;5.35;2.65;;;9.80;99.90;;;;;;5123234;27;20469;-78
2023/05/20 04:03:15;;;;;;;5.85;2.95;;;9.90;99.90;;;;;;5139777;27;20079;-78
2023/05/20 04:05:41;;;;;;;9.98;3.08;;;9.90;99.90;;;;;;5127647;27;20394;-78
2023/05/20 04:08:08;;;;;;;5.88;2.83;;;10.00;99.90;;;;;;5127386;27;20082;-79
2023/05/20 04:10:34;;;;;;;5.80;2.70;;;10.00;99.90;;;;;;5124923;27;20351;-78
2023/05/20 04:13:00;;;;;;;7.78;2.33;;;10.10;99.90;;;;;;5089206;27;20066;-78
2023/05/20 04:15:28;;;;;;;7.22;2.70;;;10.10;99.90;;;;;;5128444;27;20114;-78
2023/05/20 04:17:54;;;;;;;9.70;2.85;;;10.20;99.90;;;;;;5127206;27;20546;-78
2023/05/20 04:20:20;;;;;;;8.00;2.40;;;10.30;99.90;;;;;;5128544;27;20386;-78
2023/05/20 04:22:47;;;;;;;7.20;2.63;;;10.30;99.90;;;;;;5129832;27;20035;-78
2023/05/20 04:25:13;;;;;;;5.88;2.25;;;10.40;99.90;;;;;;5099966;27;20475;-79
2023/05/20 04:27:39;;;;;;;8.32;2.40;;;10.40;99.90;;;;;;5128829;27;20031;-78
2023/05/20 04:30:05;;;;;;;6.88;2.10;;;10.50;99.90;;;;;;5127680;27;20501;-78
2023/05/20 04:32:33;;;;;;;6.00;1.83;;;10.50;99.90;;;;;;5126981;27;20057;-79
2023/05/20 04:35:00;;;;;;;6.40;2.00;;;10.60;99.90;;;;;;5128603;27;20039;-78
2023/05/20 04:37:27;;;;;;;6.93;1.98;;;10.70;99.90;;;;;;5128364;27;20511;-78
2023/05/20 04:39:53;;;;;;;10.32;2.20;;;10.70;99.90;;;;;;5128132;27;20035;-78
2023/05/20 04:42:21;;;;;;;10.38;1.80;;;10.80;99.90;;;;;;5122563;27;20085;-78
2023/05/20 04:44:47;;;;;;;5.13;1.83;;;10.80;99.90;;;;;;5120117;27;20062;-79
2023/05/20 04:47:13;;;;;;;7.40;1.92;;;10.80;99.90;;;;;;5125332;27;20043;-78
2023/05/20 04:49:39;;;;;;;4.43;1.77;;;10.90;99.90;;;;;;5126539;27;20332;-79
2023/05/20 04:52:05;;;;;;;6.15;1.85;;;10.90;99.90;;;;;;5127561;27;20043;-79
2023/05/20 04:54:31;;;;;;;5.07;1.60;;;11.00;99.90;;;;;;5126847;27;20046;-79
2023/05/20 04:56:58;;;;;;;4.32;1.38;;;11.00;99.90;;;;;;5126978;27;20039;-79
2023/05/20 04:59:24;;;;;;;7.47;1.60;;;11.00;99.90;;;;;;5123009;27;20063;-79
2023/05/20 05:01:49;;;;;;;5.45;1.45;;;11.10;99.90;;;;;;5126822;27;20050;-78
2023/05/20 05:04:15;;;;;;;5.30;1.90;;;11.10;99.90;;;;;;5128233;27;20503;-78
2023/05/20 05:06:41;;;;;;;9.50;1.98;;;11.10;99.90;;;;;;5123270;27;20507;-78
2023/05/20 05:09:07;;;;;;;4.40;1.50;;;11.20;99.90;;;;;;5101636;27;20084;-78
2023/05/20 05:11:32;;;;;;;4.57;1.48;;;11.20;99.90;;;;;;5127097;27;20028;-79
2023/05/20 05:13:58;;;;;;;6.40;1.55;;;11.30;99.90;;;;;;5127811;27;20052;-79
2023/05/20 05:16:24;;;;;;;9.38;1.60;;;11.40;99.90;;;;;;5122256;27;20044;-79
2023/05/20 05:18:50;;;;;;;3.67;1.25;;;11.50;99.90;;;;;;5117505;27;20051;-79
2023/05/20 05:21:16;;;;;;;4.97;1.60;;;11.50;99.90;;;;;;5126570;27;20043;-78
2023/05/20 05:23:41;;;;;;;10.10;1.63;;;11.60;99.90;;;;;;5127456;27;20045;-78
2023/05/20 05:26:07;;;;;;;5.43;1.70;;;11.80;99.90;;;;;;5112321;27;20367;-78
2023/05/20 05:28:33;;;;;;;6.65;1.50;;;11.90;99.90;;;;;;5107771;27;20047;-79
2023/05/20 05:31:00;;;;;;;6.53;1.58;;;12.10;99.90;;;;;;5104521;27;20409;-78
2023/05/20 05:33:26;;;;;;;6.68;1.70;;;12.20;99.90;;;;;;5126259;27;20050;-78
2023/05/20 05:35:52;;;;;;;4.10;1.50;;;12.40;99.90;;;;;;5117682;27;20387;-78
2023/05/20 05:38:18;;;;;;;8.38;1.95;;;12.50;99.90;;;;;;5110862;27;20119;-79
2023/05/20 05:40:44;;;;;;;4.68;1.40;;;12.60;99.90;;;;;;5094568;27;20042;-78
2023/05/20 05:43:10;;;;;;;4.82;1.50;;;12.70;99.90;;;;;;5110481;27;20043;-78
2023/05/20 05:45:35;;;;;;;3.03;1.40;;;12.70;99.90;;;;;;5123574;27;20043;-78
2023/05/20 05:48:01;;;;;;;3.90;1.50;;;12.80;99.90;;;;;;5110892;28;20083;-78
2023/05/20 05:50:27;;;;;;;4.30;1.00;;;12.80;99.90;;;;;;5102213;28;20047;-79
2023/05/20 05:52:53;;;;;;;4.10;0.90;;;12.80;99.90;;;;;;5118523;27;20039;-79
2023/05/20 05:55:18;;;;;;;4.88;1.52;;;12.90;99.90;;;;;;5123978;27;20537;-78
2023/05/20 05:57:44;;;;;;;3.25;0.98;;;12.90;99.90;;;;;;5103698;28;20566;-78
2023/05/20 06:00:10;;;;;;;6.88;0.90;;;12.90;99.90;;;;;;5100168;28;20043;-78
2023/05/20 06:02:36;;;;;;;4.82;1.20;;;13.00;99.90;;;;;;5119166;28;20048;-79
2023/05/20 06:05:02;;;;;;;3.50;1.20;;;13.10;99.90;;;;;;5109278;28;20046;-79
2023/05/20 06:07:28;;;;;;;2.65;1.27;;;13.20;99.90;;;;;;5111712;28;20089;-80
2023/05/20 06:09:54;;;;;;;3.85;1.50;;;13.20;99.90;;;;;;5106277;28;20039;-79
2023/05/20 06:12:20;;;;;;;5.32;1.20;;;13.30;99.90;;;;;;5107111;28;20130;-78
2023/05/20 06:14:46;;;;;;;5.00;1.27;;;13.40;99.90;;;;;;5104836;28;20119;-78
2023/05/20 06:17:12;;;;;;;7.65;1.17;;;13.40;99.90;;;;;;5120014;27;20051;-79
2023/05/20 06:19:38;;;;;;;4.00;1.17;;;13.50;99.90;;;;;;5125379;27;20062;-78
2023/05/20 06:22:03;;;;;;;2.72;1.10;;;13.60;99.90;;;;;;5126575;27;20038;-78
2023/05/20 06:24:29;;;;;;;7.47;1.38;;;13.60;99.90;;;;;;5147163;27;20126;-79
2023/05/20 06:26:55;;;;;;;4.97;1.35;;;13.70;99.90;;;;;;5122408;28;20367;-78
2023/05/20 06:29:22;;;;;;;3.55;1.10;;;13.70;99.90;;;;;;5111277;27;20049;-79
2023/05/20 06:31:48;;;;;;;2.80;0.95;;;13.70;99.90;;;;;;5124879;27;20058;-78
2023/05/20 06:34:13;;;;;;;3.17;1.17;;;13.70;99.90;;;;;;5133532;27;20035;-79
2023/05/20 06:36:39;;;;;;;3.05;1.00;;;13.70;99.90;;;;;;5119645;27;20747;-78
2023/05/20 06:39:10;;;;;;;8.23;1.00;;;13.80;99.90;;;;;;5147857;27;20039;-78
2023/05/20 06:41:37;;;;;;;4.80;1.15;;;13.80;99.90;;;;;;5131373;27;20495;-79
2023/05/20 06:44:03;;;;;;;3.78;0.98;;;13.80;99.90;;;;;;5146855;27;20395;-78
2023/05/20 06:46:29;;;;;;;11.13;1.25;;;13.90;99.90;;;;;;5113435;27;20504;-78
2023/05/20 06:48:54;;;;;;;3.67;1.30;;;14.00;99.90;;;;;;5120352;27;20065;-78
2023/05/20 06:51:21;;;;;;;4.15;0.95;;;14.00;99.90;;;;;;5145191;27;20050;-79
2023/05/20 06:53:46;;;;;;;6.78;1.73;;;14.10;99.90;;;;;;5149851;27;20042;-79
2023/05/20 06:56:12;;;;;;;4.68;1.08;;;14.20;99.90;;;;;;5128875;27;20043;-78
2023/05/20 06:58:38;;;;;;;3.53;1.13;;;14.30;99.90;;;;;;5129476;27;20035;-78
2023/05/20 07:01:04;;;;;;;3.95;1.20;;;14.30;99.90;;;;;;5141295;27;20661;-77
2023/05/20 07:03:30;;;;;;;6.35;1.33;;;14.40;99.90;;;;;;5150728;27;20118;-78
2023/05/20 07:05:55;;;;;;;3.45;1.20;;;14.50;99.90;;;;;;5121677;27;20551;-78
2023/05/20 07:08:21;;;;;;;3.88;1.23;;;14.50;99.90;;;;;;5143271;27;20037;-78
2023/05/20 07:10:47;;;;;;;6.15;1.00;;;14.50;99.90;;;;;;5128006;27;20424;-78
2023/05/20 07:13:13;;;;;;;3.78;1.10;;;14.60;99.90;;;;;;5141789;27;20175;-78
2023/05/20 07:15:38;;;;;;;3.00;1.20;;;14.70;99.90;;;;;;5116574;27;20062;-78
2023/05/20 07:18:04;;;;;;;4.90;1.20;;;14.70;99.90;;;;;;5137849;27;20118;-78
2023/05/20 07:20:30;;;;;;;4.38;1.13;;;14.70;99.90;;;;;;5146098;27;20146;-78
2023/05/20 07:22:56;;;;;;;8.43;1.52;;;14.80;99.90;;;;;;5113203;27;20504;-78
2023/05/20 07:25:21;;;;;;;5.13;1.20;;;14.90;99.90;;;;;;5149589;27;20034;-78
2023/05/20 07:27:47;;;;;;;6.65;1.40;;;14.90;99.90;;;;;;5114992;27;20119;-78
2023/05/20 07:30:13;;;;;;;6.95;1.05;;;15.00;99.90;;;;;;5130903;27;20043;-78
2023/05/20 07:32:39;;;;;;;3.63;1.00;;;15.10;99.90;;;;;;5113983;27;20121;-78
2023/05/20 07:35:05;;;;;;;2.30;0.90;;;15.20;99.90;;;;;;5125662;27;20180;-78
2023/05/20 07:37:31;;;;;;;4.60;1.00;;;15.20;99.90;;;;;;5137409;27;20121;-78
2023/05/20 07:39:56;;;;;;;7.63;1.17;;;15.30;99.90;;;;;;5116753;27;20751;-78
2023/05/20 07:42:22;;;;;;;4.43;1.42;;;15.40;99.90;;;;;;5127154;27;20046;-78
2023/05/20 07:44:48;;;;;;;3.30;1.30;;;15.50;99.90;;;;;;5149949;27;20046;-78
2023/05/20 07:47:13;;;;;;;6.63;1.10;;;15.60;99.90;;;;;;5114234;27;20035;-78
2023/05/20 07:49:39;;;;;;;3.80;1.20;;;15.80;99.90;;;;;;5109496;27;20051;-78
2023/05/20 07:52:05;;;;;;;3.60;1.20;;;15.80;99.90;;;;;;5124670;27;20081;-78
2023/05/20 07:54:31;;;;;;;9.18;1.40;;;15.90;99.90;;;;;;5123784;27;20195;-78
2023/05/20 07:56:59;;;;;;;2.97;0.90;;;15.90;99.90;;;;;;5128163;27;20554;-79
2023/05/20 07:59:24;;;;;;;2.42;0.88;;;16.00;99.90;;;;;;5106698;27;20039;-78
2023/05/20 08:01:50;;;;;;;16.58;1.27;;;16.10;99.90;;;;;;5129129;27;20102;-79
2023/05/20 08:04:16;;;;;;;3.78;1.23;;;16.20;99.90;;;;;;5150656;27;20146;-78
2023/05/20 08:06:43;;;;;;;5.63;1.30;;;16.30;99.90;;;;;;5127662;27;20047;-79
2023/05/20 08:09:09;;;;;;;3.53;1.05;;;16.30;99.90;;;;;;5144909;27;20081;-79
2023/05/20 08:11:35;;;;;;;3.30;1.05;;;16.40;99.90;;;;;;5128121;27;20423;-79
2023/05/20 08:14:01;;;;;;;4.63;1.15;;;16.40;99.90;;;;;;5135580;27;20046;-79
2023/05/20 08:16:27;;;;;;;7.05;1.10;;;16.40;99.90;;;;;;5133345;27;20051;-79
2023/05/20 08:18:52;;;;;;;4.35;1.08;;;16.50;99.90;;;;;;5113016;27;20062;-78
2023/05/20 08:21:18;;;;;;;2.40;0.98;;;16.60;99.90;;;;;;5117977;27;20035;-79
2023/05/20 08:23:44;;;;;;;4.10;1.13;;;16.70;99.90;;;;;;5112954;27;20047;-79
2023/05/20 08:26:10;;;;;;;3.78;1.48;;;16.80;99.90;;;;;;5125843;27;20035;-79
2023/05/20 08:28:36;;;;;;;5.32;0.90;;;16.90;99.90;;;;;;5138655;27;20081;-79
2023/05/20 08:31:02;;;;;;;5.35;1.00;;;17.00;99.90;;;;;;5146854;27;20039;-79
2023/05/20 08:33:28;;;;;;;4.22;1.40;;;17.10;99.90;;;;;;5131060;27;20047;-79
2023/05/20 08:35:54;;;;;;;40.00;2.78;;;17.20;99.90;;;;;;5113722;27;20043;-79
2023/05/20 08:38:19;;;;;;;4.20;1.00;;;17.20;99.90;;;;;;5149632;27;20043;-79
2023/05/20 08:40:50;;;;;;;7.43;1.23;;;17.20;99.90;;;;;;5126967;27;20035;-79
2023/05/20 08:43:16;;;;;;;8.18;1.33;;;17.30;99.90;;;;;;5138832;27;20043;-79
2023/05/20 08:45:41;;;;;;;6.47;1.42;;;17.30;99.90;;;;;;5125032;27;20493;-78
2023/05/20 08:48:07;;;;;;;6.63;1.13;;;17.40;99.90;;;;;;5126713;27;20035;-79
2023/05/20 08:50:33;;;;;;;10.43;1.40;;;17.40;99.90;;;;;;5149552;27;20046;-79
2023/05/20 08:52:59;;;;;;;3.63;1.10;;;17.50;99.90;;;;;;5130704;27;20324;-79
2023/05/20 08:55:42;;;;;;;5.97;1.17;;;17.60;99.90;;;;;;5125815;27;20501;-79
2023/05/20 08:58:08;;;;;;;;;;;17.60;99.90;;;;;;5141846;27;20047;-79
2023/05/20 09:00:34;;;;;;;4.10;1.50;;;17.50;99.90;;;;;;5119483;27;19967;-79
2023/05/20 09:03:00;;;;;;;7.13;1.40;;;17.60;99.90;;;;;;5129499;27;20549;-78
2023/05/20 09:05:26;;;;;;;2.65;1.13;;;17.70;99.90;;;;;;5148841;27;20043;-79
2023/05/20 09:07:52;;;;;;;3.03;1.15;;;17.80;99.90;;;;;;5130176;27;20359;-80
2023/05/20 09:10:19;;;;;;;4.20;1.20;;;17.90;99.90;;;;;;5126243;27;20112;-79
2023/05/20 09:12:45;;;;;;;10.32;1.42;;;17.90;99.90;;;;;;5144861;27;20077;-79
2023/05/20 09:15:11;;;;;;;2.13;0.95;;;18.00;99.90;;;;;;5102718;27;20537;-79
2023/05/20 09:17:37;;;;;;;5.40;1.05;;;18.20;99.90;;;;;;5112031;27;20043;-79
2023/05/20 09:20:09;;;;;;;7.60;1.30;;;18.20;99.90;;;;;;5092564;27;20348;-79
2023/05/20 09:22:35;;;;;;;6.10;1.20;;;18.30;99.90;;;;;;5065630;28;20517;-79
2023/05/20 09:25:01;;;;;;;7.97;1.40;;;18.40;99.90;;;;;;5073261;28;20044;-79
2023/05/20 09:27:27;;;;;;;9.80;1.60;;;18.40;99.90;;;;;;5083486;28;20403;-79
2023/05/20 09:29:52;;;;;;;3.63;1.00;;;18.50;99.90;;;;;;5085197;28;20046;-79
2023/05/20 09:32:23;;;;;;;7.22;2.10;;;18.60;99.90;;;;;;5130546;27;20077;-79
2023/05/20 09:34:49;;;;;;;7.63;1.70;;;18.60;99.90;;;;;;5106942;28;20043;-80
2023/05/20 09:37:18;;;;;;;6.63;1.45;;;18.70;99.90;;;;;;5104704;28;20506;-79
2023/05/20 09:40:00;;;;;;;7.00;1.40;;;18.80;99.90;;;;;;5089356;28;20051;-79
2023/05/20 09:42:38;;;;;;;5.07;1.27;;;18.90;99.90;;;;;;5088732;28;20043;-80
2023/05/20 09:45:08;;;;;;;7.22;1.65;;;19.00;99.90;;;;;;5102064;28;20079;-79
2023/05/20 09:47:37;;;;;;;3.75;1.10;;;19.00;99.90;;;;;;5079200;28;20035;-79
2023/05/20 09:50:06;;;;;;;3.75;1.40;;;19.00;99.90;;;;;;5095556;28;20076;-79
2023/05/20 09:52:33;;;;;;;5.88;1.40;;;19.10;99.90;;;;;;5103964;28;20065;-79
2023/05/20 09:55:04;;;;;;;5.97;1.50;;;19.20;99.90;;;;;;5107119;28;20047;-79
2023/05/20 09:57:33;;;;;;;5.45;1.70;;;19.30;99.90;;;;;;5087946;28;20556;-79
2023/05/20 09:59:58;;;;;;;6.53;2.50;;;19.40;99.90;;;;;;5082188;28;20048;-79
2023/05/20 10:02:25;;;;;;;3.47;1.40;;;19.40;99.90;;;;;;5106183;28;20444;-79
2023/05/20 10:04:54;;;;;;;4.80;1.40;;;19.50;99.90;;;;;;5101963;28;20052;-80
2023/05/20 10:07:57;;;;;;;2.78;1.10;;;19.60;99.90;;;;;;5091798;28;20047;-82
2023/05/20 10:10:39;;;;;;;7.47;1.33;;;19.50;99.90;;;;;;5100921;27;20093;-81
2023/05/20 10:13:18;;;;;;;4.85;1.63;;;19.30;99.90;;;;;;5109760;28;20120;-80
2023/05/20 10:16:04;;;;;;;6.63;1.42;;;19.20;99.90;;;;;;5102597;27;20051;-81
2023/05/20 10:19:03;;;;;;;6.05;1.52;;;19.20;99.90;;;;;;5103841;27;20057;-80
2023/05/20 10:21:30;;;;;;;5.43;1.48;;;19.10;99.90;;;;;;5151205;27;20615;-81
2023/05/20 10:24:06;;;;;;;7.53;1.75;;;19.00;99.90;;;;;;5131554;27;20054;-81
2023/05/20 10:26:40;;;;;;;3.75;1.48;;;19.10;99.90;;;;;;5151771;27;20049;-81
2023/05/20 10:29:17;;;;;;;10.65;1.67;;;19.30;99.90;;;;;;5133492;27;20545;-81
2023/05/20 10:31:45;;;;;;;15.75;2.20;;;19.40;99.90;;;;;;5115958;27;20055;-81
2023/05/20 10:34:17;;;;;;;4.05;1.38;;;19.60;99.90;;;;;;5132844;27;20357;-80
2023/05/20 10:36:57;;;;;;;12.57;1.53;;;19.90;99.90;;;;;;5133806;27;20444;-82
2023/05/20 10:39:28;;;;;;;8.88;1.58;;;20.20;99.90;;;;;;5119870;27;20740;-81
2023/05/20 10:42:06;;;;;;;7.40;1.33;;;20.30;99.90;;;;;;5109640;27;20045;-81
2023/05/20 10:44:42;;;;;;;8.98;1.73;;;20.20;99.90;;;;;;5129653;27;20537;-81
2023/05/20 10:47:08;;;;;;;8.73;1.77;;;20.10;99.90;;;;;;5112836;27;20043;-80
2023/05/20 10:49:35;;;;;;;5.40;1.55;;;20.20;99.90;;;;;;5112525;27;20118;-81
2023/05/20 10:52:01;;;;;;;9.98;1.50;;;20.10;99.90;;;;;;5115170;27;20114;-81
2023/05/20 10:54:28;;;;;;;5.03;1.40;;;20.10;99.90;;;;;;5132196;27;20219;-82
2023/05/20 10:56:54;;;;;;;6.57;1.50;;;20.40;99.90;;;;;;5112410;27;20049;-82
2023/05/20 10:59:20;;;;;;;3.40;1.30;;;20.60;99.90;;;;;;5099301;27;20118;-81
2023/05/20 11:01:47;;;;;;;4.82;1.40;;;20.80;99.90;;;;;;5129481;27;20035;-82
2023/05/20 11:04:15;;;;;;;8.15;1.52;;;20.50;99.90;;;;;;5112410;27;20049;-82
2023/05/20 11:06:50;;;;;;;7.82;1.50;;;20.20;99.90;;;;;;5113567;27;20042;-81
2023/05/20 11:09:16;;;;;;;6.55;1.67;;;19.80;99.90;;;;;;5112044;27;20039;-82
2023/05/20 11:11:41;;;;;;;14.30;2.03;;;19.70;99.90;;;;;;5123092;27;20088;-82
2023/05/20 11:14:12;;;;;;;10.10;1.85;;;19.60;99.90;;;;;;5126401;27;20529;-81
2023/05/20 11:16:38;;;;;;;7.13;1.48;;;19.40;99.90;;;;;;5111175;27;20126;-81
2023/05/20 11:19:07;;;;;;;8.30;2.30;;;19.40;99.90;;;;;;5129568;27;20767;-79
2023/05/20 11:21:33;;;;;;;11.65;2.15;;;19.20;99.90;;;;;;5123147;27;20053;-79
2023/05/20 11:23:58;;;;;;;6.95;1.80;;;19.10;99.90;;;;;;5131955;27;20694;-79
2023/05/20 11:26:24;;;;;;;10.80;2.33;;;19.00;99.90;;;;;;5150783;27;20444;-81
2023/05/20 11:28:50;;;;;;;8.40;2.78;;;18.70;99.90;;;;;;5129086;27;20512;-81
2023/05/20 11:31:17;;;;;;;9.60;1.83;;;18.80;99.90;;;;;;5126912;27;20079;-81
2023/05/20 11:33:43;;;;;;;7.47;1.98;;;19.10;99.90;;;;;;5143803;27;20121;-79
2023/05/20 11:36:10;;;;;;;8.57;2.60;;;19.30;99.90;;;;;;5132296;27;20031;-79
2023/05/20 11:38:36;;;;;;;10.00;1.95;;;19.50;99.90;;;;;;5111277;27;20059;-80
2023/05/20 11:41:01;;;;;;;10.95;2.08;;;19.80;99.90;;;;;;5150670;27;20101;-80
2023/05/20 11:43:27;;;;;;;7.72;2.17;;;19.80;99.90;;;;;;5131062;27;20474;-79
2023/05/20 11:45:55;;;;;;;8.43;2.53;;;19.60;99.90;;;;;;5149721;27;20062;-80
2023/05/20 11:48:22;;;;;;;8.88;2.47;;;19.50;99.90;;;;;;5119833;27;20047;-79
2023/05/20 11:50:48;;;;;;;6.97;2.28;;;19.50;99.90;;;;;;5131510;27;20051;-79
2023/05/20 11:53:16;;;;;;;6.82;2.47;;;19.50;99.90;;;;;;5131519;27;20049;-80
2023/05/20 11:55:45;;;;;;;8.20;2.35;;;19.40;99.90;;;;;;5131965;27;20047;-79
2023/05/20 11:58:15;;;;;;;7.25;2.20;;;19.30;99.90;;;;;;5130719;27;20054;-79
2023/05/20 12:00:41;;;;;;;5.93;2.22;;;19.20;99.90;;;;;;5131461;27;20394;-80
2023/05/20 12:03:06;;;;;;;6.95;2.17;;;19.30;99.90;;;;;;5131421;27;20087;-80
2023/05/20 12:05:32;;;;;;;5.57;2.20;;;19.50;99.90;;;;;;5110226;27;20069;-79
2023/05/20 12:07:58;;;;;;;10.10;2.20;;;19.70;99.90;;;;;;5125268;27;20050;-79
2023/05/20 12:10:23;;;;;;;6.90;2.13;;;19.90;99.90;;;;;;5131574;27;20377;-80
2023/05/20 12:12:49;;;;;;;6.47;1.98;;;20.20;99.90;;;;;;5130924;27;20494;-80
2023/05/20 12:15:15;;;;;;;5.80;2.15;;;20.20;99.90;;;;;;5109302;27;20073;-80
2023/05/20 12:17:47;;;;;;;6.63;2.22;;;20.10;99.90;;;;;;5125847;27;20129;-80
2023/05/20 12:20:15;;;;;;;7.60;2.03;;;20.20;99.90;;;;;;5130246;27;20038;-80
2023/05/20 12:22:42;;;;;;;14.18;2.35;;;20.20;99.90;;;;;;5113804;27;20035;-80
2023/05/20 12:25:10;;;;;;;10.07;2.55;;;20.00;99.90;;;;;;5128200;27;20102;-80
2023/05/20 12:27:36;;;;;;;8.02;2.53;;;19.70;99.90;;;;;;5125486;27;20046;-80
2023/05/20 12:30:02;;;;;;;9.25;2.47;;;19.40;99.90;;;;;;5127264;27;20039;-80
2023/05/20 12:32:28;;;;;;;9.85;3.05;;;19.20;99.90;;;;;;5123893;27;20074;-80
2023/05/20 12:34:53;;;;;;;7.03;2.13;;;19.10;99.90;;;;;;5120113;27;20038;-80
2023/05/20 12:37:19;;;;;;;6.05;2.55;;;19.00;99.90;;;;;;5130216;27;20049;-80
2023/05/20 12:39:45;;;;;;;10.93;2.15;;;19.00;99.90;;;;;;5149264;27;20100;-80
2023/05/20 12:42:11;;;;;;;9.38;2.78;;;19.00;99.90;;;;;;5130695;27;20070;-80
2023/05/20 12:44:36;;;;;;;12.25;2.83;;;18.90;99.90;;;;;;5150167;27;20085;-82